Time;durP1;ratioP1;P1;durP2;ratioP2;P2;SDS_P1;SDS_P2;PMS_P1;PMS_P2;Temp;Humidity;BMP_temperature;BMP_pressure;BME280_temperature;BME280_humidity;BME280_pressure;Samples;Min_cycle;Max_cycle;Signal;HPM_P1;HPM_P2
2023/01/31 00:01:31;;;;;;;28.10;6.75;;;;;;;1.42;100.00;102428.50;5028961;28;20435;-88
2023/01/31 00:04:00;;;;;;;32.28;6.75;;;;;;;1.43;100.00;102429.38;5030135;28;20036;-90
2023/01/31 00:06:37;;;;;;;34.08;7.30;;;;;;;1.42;100.00;102423.31;5028081;28;20061;-89
2023/01/31 00:09:04;;;;;;;33.33;6.25;;;;;;;1.42;100.00;102427.66;5029180;28;20108;-90
2023/01/31 00:11:30;;;;;;;28.02;6.57;;;;;;;1.45;100.00;102438.00;5029358;28;20056;-90
2023/01/31 00:13:58;;;;;;;30.85;6.60;;;;;;;1.41;100.00;102434.56;5029421;28;20441;-90
2023/01/31 00:16:23;;;;;;;35.33;7.28;;;;;;;1.41;100.00;102442.34;5029181;28;20109;-90
2023/01/31 00:18:49;;;;;;;27.60;6.63;;;;;;;1.43;100.00;102445.78;5011049;28;20385;-90
2023/01/31 00:21:20;;;;;;;34.92;7.10;;;;;;;1.43;100.00;102447.53;5026470;28;20028;-90
2023/01/31 00:23:46;;;;;;;32.50;7.70;;;;;;;1.46;100.00;102440.56;5034299;28;20052;-90
2023/01/31 00:26:16;;;;;;;29.63;7.45;;;;;;;1.45;100.00;102443.16;5053256;28;20032;-83
2023/01/31 00:28:42;;;;;;;37.47;7.75;;;;;;;1.46;100.00;102448.34;5050143;28;20025;-89
2023/01/31 00:31:09;;;;;;;35.08;6.97;;;;;;;1.51;100.00;102443.09;5052621;28;20048;-90
2023/01/31 00:33:35;;;;;;;31.60;7.47;;;;;;;1.52;100.00;102444.81;5051116;28;20132;-84
2023/01/31 00:36:09;;;;;;;29.17;7.55;;;;;;;1.54;100.00;102448.25;5033386;28;20026;-83
2023/01/31 00:38:34;;;;;;;31.42;7.70;;;;;;;1.52;100.00;102440.50;5029256;28;20047;-89
2023/01/31 00:41:00;;;;;;;32.30;6.60;;;;;;;1.53;100.00;102436.16;5040828;28;20084;-90
2023/01/31 00:43:26;;;;;;;25.42;6.88;;;;;;;1.52;100.00;102440.50;5052278;28;20025;-90
2023/01/31 00:45:52;;;;;;;34.83;7.57;;;;;;;1.56;100.00;102433.53;5027872;28;20029;-90
2023/01/31 00:48:17;;;;;;;30.23;7.28;;;;;;;1.54;100.00;102432.69;5025687;28;20040;-88
2023/01/31 00:50:42;;;;;;;33.10;8.13;;;;;;;1.55;100.00;102426.63;5035901;28;20044;-89
2023/01/31 00:53:08;;;;;;;26.92;7.35;;;;;;;1.57;100.00;102428.31;5019348;28;20513;-83
2023/01/31 00:55:33;;;;;;;33.65;7.70;;;;;;;1.57;100.00;102428.31;5044530;28;20033;-90
2023/01/31 00:57:59;;;;;;;30.30;8.05;;;;;;;1.60;100.00;102424.84;5051689;28;20037;-90
2023/01/31 01:00:24;;;;;;;29.27;7.32;;;;;;;1.61;100.00;102423.13;5055058;28;20029;-90
2023/01/31 01:02:49;;;;;;;32.90;8.30;;;;;;;1.64;100.00;102423.09;5021767;28;20032;-89
2023/01/31 01:05:15;;;;;;;32.28;8.18;;;;;;;1.62;100.00;102417.94;5045211;28;20032;-83
2023/01/31 01:07:41;;;;;;;31.42;8.45;;;;;;;1.65;100.00;102417.88;5031504;28;20363;-90
2023/01/31 01:10:06;;;;;;;37.00;8.50;;;;;;;1.66;100.00;102416.16;5016088;28;20320;-90
2023/01/31 01:12:32;;;;;;;35.05;8.45;;;;;;;1.65;100.00;102414.44;5014911;28;20041;-89
2023/01/31 01:14:57;;;;;;;36.65;8.88;;;;;;;1.64;100.00;102410.13;5025317;28;20037;-90
2023/01/31 01:17:22;;;;;;;31.52;7.60;;;;;;;1.63;100.00;102403.22;5038657;28;20052;-90
2023/01/31 01:19:48;;;;;;;32.45;8.40;;;;;;;1.62;100.00;102394.59;5044113;28;20495;-89
2023/01/31 01:22:15;;;;;;;31.38;8.52;;;;;;;1.64;100.00;102394.56;5029004;28;20033;-90
2023/01/31 01:24:41;;;;;;;34.78;9.07;;;;;;;1.61;100.00;102392.88;5044187;28;20504;-90
2023/01/31 01:27:07;;;;;;;34.85;8.60;;;;;;;1.57;100.00;102391.16;5040392;28;20029;-90
2023/01/31 01:29:33;;;;;;;31.83;9.20;;;;;;;1.57;100.00;102385.97;5061113;28;20033;-90
2023/01/31 01:31:59;;;;;;;33.08;8.98;;;;;;;1.59;100.00;102384.22;5035825;28;20032;-90
2023/01/31 01:34:25;;;;;;;33.65;9.35;;;;;;;1.58;100.00;102387.69;5050357;28;20090;-89
2023/01/31 01:36:50;;;;;;;36.30;9.52;;;;;;;1.60;100.00;102385.94;5052321;28;20029;-89
2023/01/31 01:39:17;;;;;;;37.30;9.85;;;;;;;1.59;100.00;102381.63;5019413;28;20029;-90
2023/01/31 01:41:42;;;;;;;34.63;10.07;;;;;;;1.60;100.00;102380.75;5051410;28;20082;-89
2023/01/31 01:44:45;;;;;;;37.15;10.02;;;;;;;1.63;100.00;102391.09;5046198;28;20544;-90
2023/01/31 01:47:19;;;;;;;35.97;10.40;;;;;;;1.63;100.00;102385.06;5052196;28;20029;-91
2023/01/31 01:49:50;;;;;;;37.08;9.93;;;;;;;1.61;100.00;102379.03;5035124;28;20021;-90
2023/01/31 01:52:16;;;;;;;35.65;11.15;;;;;;;1.59;100.00;102376.44;5050753;28;20059;-90
2023/01/31 01:55:18;;;;;;;33.28;10.48;;;;;;;1.63;100.00;102370.34;5052085;28;20373;-90
2023/01/31 01:57:46;;;;;;;40.53;10.68;;;;;;;1.60;100.00;102367.78;5027334;28;20052;-90
2023/01/31 02:00:18;;;;;;;39.20;11.55;;;;;;;1.56;100.00;102369.56;5042454;28;20385;-83
2023/01/31 02:02:49;;;;;;;35.05;10.93;;;;;;;1.55;100.00;102372.16;5034033;28;20120;-90
2023/01/31 02:05:22;;;;;;;29.67;10.32;;;;;;;1.52;100.00;102365.28;5050361;28;20470;-89
2023/01/31 02:07:48;;;;;;;38.90;11.23;;;;;;;1.52;100.00;102372.19;5016472;28;20070;-91
2023/01/31 02:10:19;;;;;;;41.85;10.85;;;;;;;1.51;100.00;102391.22;5036538;28;20033;-90
2023/01/31 02:12:45;;;;;;;36.20;11.25;;;;;;;1.47;100.00;102384.38;5018341;28;20095;-90
2023/01/31 02:15:10;;;;;;;43.83;11.95;;;;;;;1.45;100.00;102381.78;5014074;28;20501;-90
2023/01/31 02:17:38;;;;;;;41.15;12.23;;;;;;;1.42;100.00;102380.97;5049716;28;20198;-90
2023/01/31 02:20:23;;;;;;;35.47;11.75;;;;;;;1.44;100.00;102384.41;5050319;28;20029;-89
2023/01/31 02:23:12;;;;;;;40.20;12.35;;;;;;;1.44;100.00;102387.84;5040675;28;20485;-90
2023/01/31 02:25:58;;;;;;;41.22;12.50;;;;;;;1.42;100.00;102393.94;5046222;28;20116;-90
2023/01/31 02:28:35;;;;;;;36.25;12.68;;;;;;;1.40;100.00;102387.91;5049460;28;20048;-90
2023/01/31 02:31:09;;;;;;;39.30;12.70;;;;;;;1.42;100.00;102392.19;5033029;28;20113;-84
2023/01/31 02:33:42;;;;;;;43.47;12.95;;;;;;;1.41;100.00;102400.00;5046191;28;20040;-89
2023/01/31 02:36:17;;;;;;;38.60;12.68;;;;;;;1.41;100.00;102395.69;5033579;28;20040;-89
2023/01/31 02:38:58;;;;;;;42.45;13.40;;;;;;;1.41;100.00;102387.03;5046551;28;20098;-89
2023/01/31 02:41:42;;;;;;;44.33;14.13;;;;;;;1.42;100.00;102387.03;5032255;28;20033;-89
2023/01/31 02:47:19;;;;;;;43.35;14.82;;;;;;;1.41;100.00;102376.66;5047171;28;20043;-89
2023/01/31 02:49:44;;;;;;;44.05;14.23;;;;;;;1.44;100.00;102384.41;5038957;28;20128;-90
2023/01/31 02:52:19;;;;;;;50.33;14.90;;;;;;;1.45;100.00;102391.31;5050998;28;20048;-90
2023/01/31 02:57:43;;;;;;;47.90;16.80;;;;;;;1.49;100.00;102390.41;5046720;28;20111;-90
2023/01/31 03:00:10;;;;;;;44.38;16.17;;;;;;;1.50;100.00;102385.19;5051282;28;20382;-90
2023/01/31 03:02:36;;;;;;;46.17;16.92;;;;;;;1.54;100.00;102383.41;5032815;28;20032;-90
2023/01/31 03:05:02;;;;;;;42.65;16.17;;;;;;;1.56;100.00;102385.13;5033546;28;20009;-90
2023/01/31 03:07:32;;;;;;;52.58;17.10;;;;;;;1.58;100.00;102391.13;5031697;28;20028;-89
2023/01/31 03:10:13;;;;;;;46.33;16.52;;;;;;;1.60;100.00;102388.53;5032590;28;20055;-90
2023/01/31 03:12:41;;;;;;;44.45;16.30;;;;;;;1.61;100.00;102379.91;5051412;28;20033;-90
2023/01/31 03:15:25;;;;;;;44.92;15.88;;;;;;;1.63;100.00;102377.28;5047401;28;20025;-90
2023/01/31 03:17:59;;;;;;;49.33;17.05;;;;;;;1.63;100.00;102380.72;5049999;28;20087;-89
2023/01/31 03:20:39;;;;;;;43.70;17.23;;;;;;;1.65;100.00;102370.34;5051105;28;20033;-90
2023/01/31 03:23:14;;;;;;;45.03;17.38;;;;;;;1.65;100.00;102368.59;5031864;28;20079;-89
2023/01/31 03:25:41;;;;;;;43.95;17.73;;;;;;;1.66;100.00;102370.31;5051232;28;20023;-90
2023/01/31 03:28:12;;;;;;;48.45;18.15;;;;;;;1.67;100.00;102372.03;5049229;28;20037;-90
2023/01/31 03:31:18;;;;;;;50.25;18.77;;;;;;;1.71;100.00;102370.25;5030474;28;20029;-90
2023/01/31 03:33:49;;;;;;;43.05;17.65;;;;;;;1.74;100.00;102367.63;5038607;28;20029;-90
2023/01/31 03:36:17;;;;;;;52.33;19.35;;;;;;;1.73;100.00;102360.72;5051128;28;20020;-90
2023/01/31 03:38:52;;;;;;;44.78;18.70;;;;;;;1.75;100.00;102365.00;5032829;28;20136;-91
2023/01/31 03:41:24;;;;;;;51.55;20.60;;;;;;;1.79;100.00;102358.91;5050928;28;20024;-91
2023/01/31 03:44:04;;;;;;;47.95;19.55;;;;;;;1.82;100.00;102355.41;5050422;28;20086;-91
2023/01/31 03:46:35;;;;;;;38.72;19.27;;;;;;;1.82;100.00;102356.25;5049230;28;20021;-91
2023/01/31 03:49:07;;;;;;;47.90;20.70;;;;;;;1.85;100.00;102347.56;5039214;28;20060;-91
2023/01/31 03:51:37;;;;;;;54.60;21.98;;;;;;;1.87;100.00;102351.84;5038763;28;20029;-90
2023/01/31 03:54:08;;;;;;;46.67;20.23;;;;;;;1.91;100.00;102350.06;5049966;28;20033;-90
2023/01/31 03:56:41;;;;;;;49.87;21.77;;;;;;;1.92;100.00;102346.59;5048886;28;20481;-90
2023/01/31 03:59:22;;;;;;;51.80;20.90;;;;;;;1.93;100.00;102335.34;5029581;28;20029;-90
2023/01/31 04:01:50;;;;;;;46.70;20.90;;;;;;;1.97;100.00;102339.59;5045036;28;20103;-90
2023/01/31 04:04:49;;;;;;;54.30;21.02;;;;;;;2.01;100.00;102330.06;5052759;28;20052;-91
2023/01/31 04:07:16;;;;;;;53.03;20.35;;;;;;;2.00;100.00;102338.69;5049715;28;20078;-89
2023/01/31 04:09:42;;;;;;;50.90;20.25;;;;;;;1.99;100.00;102340.44;5046751;28;20013;-88
2023/01/31 04:12:12;;;;;;;45.70;20.08;;;;;;;2.00;100.00;102343.88;5057047;28;20040;-90
2023/01/31 04:14:37;;;;;;;53.90;20.55;;;;;;;1.94;100.00;102343.97;5050046;28;20029;-89
2023/01/31 04:17:03;;;;;;;44.47;19.50;;;;;;;1.94;100.00;102333.59;5049501;28;20090;-90
2023/01/31 04:19:28;;;;;;;48.80;21.08;;;;;;;1.94;100.00;102334.47;5031512;28;20036;-90
2023/01/31 04:21:54;;;;;;;46.00;20.17;;;;;;;1.93;100.00;102334.47;5042880;28;20056;-90
2023/01/31 04:24:19;;;;;;;48.20;20.60;;;;;;;1.97;100.00;102325.78;5017582;28;20059;-91
2023/01/31 04:26:44;;;;;;;49.47;20.55;;;;;;;1.99;100.00;102332.66;5031719;28;20029;-90
2023/01/31 04:29:10;;;;;;;52.42;20.52;;;;;;;1.97;100.00;102328.38;5030164;28;20021;-90
2023/01/31 04:31:35;;;;;;;42.45;19.70;;;;;;;1.97;100.00;102331.81;5049995;28;20032;-90
2023/01/31 04:34:01;;;;;;;44.40;20.00;;;;;;;1.96;100.00;102321.47;5050141;28;20084;-90
2023/01/31 04:36:26;;;;;;;41.78;19.55;;;;;;;1.97;100.00;102325.78;5050822;28;20657;-90
2023/01/31 04:38:52;;;;;;;50.30;20.17;;;;;;;1.95;100.00;102327.53;5030480;28;20166;-91
2023/01/31 04:41:18;;;;;;;43.28;19.90;;;;;;;1.94;100.00;102333.59;5028421;28;20056;-89
2023/01/31 04:43:43;;;;;;;45.88;19.45;;;;;;;1.92;100.00;102322.38;5044913;28;20049;-91
2023/01/31 04:46:08;;;;;;;45.20;20.17;;;;;;;1.92;100.00;102324.97;5030247;28;20067;-90
2023/01/31 04:48:34;;;;;;;52.47;19.90;;;;;;;1.87;100.00;102327.66;5031657;28;20040;-90
2023/01/31 04:51:00;;;;;;;43.92;19.42;;;;;;;1.85;100.00;102325.06;5032015;28;20470;-90
2023/01/31 04:53:26;;;;;;;45.72;19.05;;;;;;;1.84;100.00;102319.91;5052909;28;20033;-90
2023/01/31 04:55:54;;;;;;;46.78;19.65;;;;;;;1.83;100.00;102320.78;5047454;28;20029;-83
2023/01/31 04:58:20;;;;;;;47.38;19.75;;;;;;;1.81;100.00;102310.44;5035744;28;20036;-91
2023/01/31 05:00:49;;;;;;;43.42;19.38;;;;;;;1.81;100.00;102302.66;5035366;28;20025;-84
2023/01/31 05:03:15;;;;;;;46.65;19.20;;;;;;;1.80;100.00;102305.25;5036531;28;20025;-90
2023/01/31 05:05:40;;;;;;;43.92;19.75;;;;;;;1.83;100.00;102294.84;5053356;28;20028;-91
2023/01/31 05:08:06;;;;;;;49.17;21.25;;;;;;;1.84;100.00;102299.16;5053381;28;20244;-83
2023/01/31 05:10:33;;;;;;;51.33;19.95;;;;;;;1.87;100.00;102294.75;5054100;28;20024;-90
2023/01/31 05:12:58;;;;;;;47.75;19.27;;;;;;;1.91;100.00;102286.94;5044283;28;20547;-90
2023/01/31 05:15:24;;;;;;;44.40;20.05;;;;;;;1.93;100.00;102285.16;5039101;28;20029;-90
2023/01/31 05:18:01;;;;;;;41.25;19.38;;;;;;;1.94;100.00;102290.34;5036042;28;20032;-83
2023/01/31 05:20:33;;;;;;;44.35;19.70;;;;;;;1.99;100.00;102285.06;5051774;28;20478;-90
2023/01/31 05:22:59;;;;;;;51.10;20.52;;;;;;;2.00;100.00;102281.59;5034807;28;20013;-83
2023/01/31 05:25:25;;;;;;;43.47;19.30;;;;;;;2.01;100.00;102268.63;5052425;28;20040;-91
2023/01/31 05:27:51;;;;;;;50.05;19.35;;;;;;;2.04;100.00;102281.56;5049855;28;20028;-83
2023/01/31 05:30:17;;;;;;;41.22;18.75;;;;;;;2.08;100.00;102267.66;5034756;28;20029;-90
2023/01/31 05:32:44;;;;;;;46.80;20.13;;;;;;;2.09;100.00;102266.75;5053809;28;20520;-90
2023/01/31 05:35:11;;;;;;;39.78;18.08;;;;;;;2.11;100.00;102269.34;5035669;28;20025;-91
2023/01/31 05:37:36;;;;;;;37.75;18.08;;;;;;;2.13;100.00;102262.38;5029620;28;20037;-90
2023/01/31 05:40:02;;;;;;;42.67;17.98;;;;;;;2.13;100.00;102260.63;5049078;28;20029;-91
2023/01/31 05:42:27;;;;;;;44.58;17.90;;;;;;;2.14;100.00;102253.69;5034895;28;20017;-91
2023/01/31 05:44:53;;;;;;;40.67;18.25;;;;;;;2.14;100.00;102261.50;5047262;28;20028;-90
2023/01/31 05:47:18;;;;;;;36.40;17.48;;;;;;;2.15;100.00;102260.59;5044661;28;20025;-90
2023/01/31 05:49:43;;;;;;;47.78;18.30;;;;;;;2.15;100.00;102255.41;5053112;28;20036;-91
2023/01/31 05:52:09;;;;;;;43.97;16.98;;;;;;;2.15;100.00;102265.81;5050559;28;20405;-90
2023/01/31 05:54:34;;;;;;;41.95;17.30;;;;;;;2.17;100.00;102258.84;5053173;28;20025;-90
2023/01/31 05:57:00;;;;;;;37.20;17.25;;;;;;;2.17;100.00;102254.50;5022169;28;20029;-83
2023/01/31 05:59:29;;;;;;;35.28;16.58;;;;;;;2.19;100.00;102257.94;5032372;28;20034;-91
2023/01/31 06:01:54;;;;;;;36.30;16.50;;;;;;;2.20;100.00;102253.59;5039556;28;20074;-91
2023/01/31 06:04:20;;;;;;;36.28;16.42;;;;;;;2.22;100.00;102256.16;5050831;28;20048;-91
2023/01/31 06:06:45;;;;;;;39.53;16.70;;;;;;;2.25;100.00;102271.69;5061412;28;20054;-90
2023/01/31 06:09:10;;;;;;;41.15;16.25;;;;;;;2.25;100.00;102272.56;5053581;28;20033;-92
2023/01/31 06:11:36;;;;;;;38.45;15.48;;;;;;;2.26;100.00;102271.66;5051455;28;20029;-91
2023/01/31 06:14:01;;;;;;;35.33;15.48;;;;;;;2.28;100.00;102269.03;5034584;28;20025;-91
2023/01/31 06:16:26;;;;;;;43.08;16.48;;;;;;;2.30;100.00;102254.28;5033880;28;20055;-90
2023/01/31 06:18:54;;;;;;;37.05;15.43;;;;;;;2.29;100.00;102266.41;5050234;28;20371;-91
2023/01/31 06:21:20;;;;;;;41.58;15.55;;;;;;;2.30;100.00;102255.16;5046829;28;20113;-92
2023/01/31 06:23:46;;;;;;;33.85;14.88;;;;;;;2.32;100.00;102253.38;5052528;28;20624;-91
2023/01/31 06:26:12;;;;;;;37.72;15.35;;;;;;;2.33;100.00;102265.47;5034333;28;20025;-91
2023/01/31 06:28:38;;;;;;;34.22;15.05;;;;;;;2.34;100.00;102271.53;5052995;28;20029;-83
2023/01/31 06:31:11;;;;;;;37.10;15.18;;;;;;;2.36;100.00;102270.63;5050356;28;20086;-91
2023/01/31 06:33:36;;;;;;;39.03;14.73;;;;;;;2.37;100.00;102267.13;5050765;28;20586;-91
2023/01/31 06:36:02;;;;;;;35.47;14.15;;;;;;;2.40;100.00;102272.31;5047082;28;20053;-91
2023/01/31 06:38:28;;;;;;;39.72;15.43;;;;;;;2.43;100.00;102256.66;5034278;28;20486;-91
2023/01/31 06:40:53;;;;;;;35.35;13.60;;;;;;;2.43;100.00;102261.88;5032183;28;20074;-91
2023/01/31 06:43:19;;;;;;;37.20;14.60;;;;;;;2.45;100.00;102254.91;5050075;28;20389;-91
2023/01/31 06:45:44;;;;;;;35.13;14.10;;;;;;;2.48;100.00;102260.03;5034840;28;20552;-92
2023/01/31 06:48:10;;;;;;;32.83;14.02;;;;;;;2.48;100.00;102244.47;5051232;28;20039;-89
2023/01/31 06:50:36;;;;;;;40.60;13.95;;;;;;;2.53;100.00;102246.97;5050645;28;20033;-91
2023/01/31 06:53:01;;;;;;;33.42;13.02;;;;;;;2.56;100.00;102240.84;5040711;28;20386;-92
2023/01/31 06:55:26;;;;;;;32.70;13.52;;;;;;;2.59;100.00;102233.00;5031531;28;20157;-92
2023/01/31 06:57:52;;;;;;;37.88;13.20;;;;;;;2.60;100.00;102240.78;5032234;28;20569;-91
2023/01/31 07:00:18;;;;;;;32.65;12.88;;;;;;;2.62;100.00;102240.75;5045918;28;20059;-91
2023/01/31 07:02:44;;;;;;;32.58;12.73;;;;;;;2.62;100.00;102240.75;5034662;28;20023;-91
2023/01/31 07:05:10;;;;;;;34.05;12.60;;;;;;;2.62;100.00;102240.75;5049228;28;20432;-92
2023/01/31 07:07:35;;;;;;;36.20;13.15;;;;;;;2.63;100.00;102242.44;5043232;28;20020;-92
2023/01/31 07:10:01;;;;;;;33.03;12.30;;;;;;;2.64;100.00;102229.44;5065750;28;20033;-92
2023/01/31 07:12:27;;;;;;;32.33;12.60;;;;;;;2.66;100.00;102245.00;5049556;28;20035;-84
2023/01/31 07:14:52;;;;;;;31.88;12.68;;;;;;;2.68;100.00;102227.63;5053091;28;20032;-92
2023/01/31 07:17:19;;;;;;;31.33;12.70;;;;;;;2.68;100.00;102232.81;5057134;28;20120;-91
2023/01/31 07:19:45;;;;;;;29.13;12.07;;;;;;;2.73;100.00;102226.66;5062428;28;20024;-91
2023/01/31 07:22:11;;;;;;;29.70;12.27;;;;;;;2.77;100.00;102219.66;5046477;28;20379;-92
2023/01/31 07:24:36;;;;;;;28.85;11.88;;;;;;;2.82;100.00;102217.84;5034927;28;20056;-92
2023/01/31 07:27:01;;;;;;;28.58;11.20;;;;;;;2.86;100.00;102216.91;5056817;28;20050;-92
2023/01/31 07:29:27;;;;;;;30.25;10.73;;;;;;;2.92;100.00;102224.56;5050412;28;20044;-91
2023/01/31 07:31:54;;;;;;;31.10;10.77;;;;;;;2.97;100.00;102217.53;5063507;28;20020;-91
2023/01/31 07:34:21;;;;;;;31.27;11.18;;;;;;;3.03;100.00;102222.59;5052350;28;20024;-92
2023/01/31 07:36:50;;;;;;;29.75;11.02;;;;;;;3.08;100.00;102218.16;5020080;28;20020;-91
2023/01/31 07:39:19;;;;;;;32.80;10.95;;;;;;;3.14;100.00;102214.56;5065630;28;20024;-91
2023/01/31 07:41:47;;;;;;;35.05;10.68;;;;;;;3.15;100.00;102217.13;5072843;28;20032;-91
2023/01/31 07:44:13;;;;;;;33.30;10.60;;;;;;;3.19;100.00;102211.88;5072899;28;20020;-93
2023/01/31 07:46:39;;;;;;;31.08;10.50;;;;;;;3.23;100.00;102208.34;5074696;28;20020;-91
2023/01/31 07:49:11;;;;;;;29.08;10.93;;;;;;;3.22;100.00;102211.81;5094996;28;20059;-91
2023/01/31 07:51:37;;;;;;;29.65;10.73;;;;;;;3.25;100.00;102201.34;5067004;28;20236;-93
2023/01/31 07:54:09;;;;;;;29.60;10.68;;;;;;;3.24;100.00;102195.28;5070481;28;20020;-91
2023/01/31 07:56:34;;;;;;;27.08;10.00;;;;;;;3.25;100.00;102199.63;5039918;28;20440;-91
2023/01/31 07:59:00;;;;;;;30.40;10.93;;;;;;;3.26;100.00;102190.91;5053609;28;20029;-92
2023/01/31 08:04:16;;;;;;;31.42;10.40;;;;;;;3.29;100.00;102193.44;5041966;28;20052;-92
2023/01/31 08:06:43;;;;;;;30.80;10.82;;;;;;;3.31;100.00;102185.59;5056450;28;20763;-92
2023/01/31 08:09:10;;;;;;;28.15;10.18;;;;;;;3.33;100.00;102189.88;5052088;28;20020;-91
2023/01/31 08:11:35;;;;;;;28.85;10.70;;;;;;;3.34;100.00;102175.13;5070450;28;20064;-92
2023/01/31 08:14:01;;;;;;;26.95;10.32;;;;;;;3.38;100.00;102161.16;5065543;28;20117;-92
2023/01/31 08:16:26;;;;;;;25.75;9.93;;;;;;;3.39;100.00;102168.94;5070393;28;20103;-91
2023/01/31 08:18:52;;;;;;;29.17;10.23;;;;;;;3.44;100.00;102176.63;5070575;28;20031;-92
2023/01/31 08:21:18;;;;;;;27.02;9.65;;;;;;;3.46;100.00;102180.91;5070197;28;20086;-92
2023/01/31 08:23:44;;;;;;;27.45;10.13;;;;;;;3.50;100.00;102171.28;5070513;28;20485;-92
2023/01/31 08:26:15;;;;;;;34.05;10.40;;;;;;;3.51;100.00;102173.00;5046620;28;20694;-92
2023/01/31 08:28:43;;;;;;;25.83;9.90;;;;;;;3.56;100.00;102171.13;5069750;28;20020;-92
2023/01/31 08:31:14;;;;;;;22.60;8.85;;;;;;;3.62;100.00;102171.00;5038023;28;20024;-92
2023/01/31 08:33:40;;;;;;;18.88;8.25;;;;;;;3.69;100.00;102162.16;5045038;28;20075;-91
2023/01/31 08:36:15;;;;;;;25.88;9.23;;;;;;;3.74;100.00;102155.09;5064722;28;20020;-91
2023/01/31 08:38:41;;;;;;;21.50;9.02;;;;;;;3.77;100.00;102161.97;5052401;28;20059;-92
2023/01/31 08:41:07;;;;;;;24.42;9.15;;;;;;;3.82;100.00;102149.69;5069825;28;20050;-92
2023/01/31 08:43:32;;;;;;;22.02;8.98;;;;;;;3.89;100.00;102153.84;5036960;28;20071;-90
2023/01/31 08:45:58;;;;;;;27.90;9.40;;;;;;;3.90;100.00;102142.53;5061715;28;20441;-91
2023/01/31 08:48:23;;;;;;;22.92;8.57;;;;;;;3.95;100.00;102143.28;5052011;28;20025;-91
2023/01/31 08:50:49;;;;;;;29.02;9.02;;;;;;;3.95;100.00;102153.69;5050707;28;20043;-82
2023/01/31 08:53:14;;;;;;;24.70;8.73;;;;;;;3.99;100.00;102146.66;5054792;28;20056;-90
2023/01/31 08:55:39;;;;;;;25.65;9.02;;;;;;;3.97;100.00;102141.47;5051751;28;20029;-91
2023/01/31 08:58:05;;;;;;;22.92;8.77;;;;;;;4.00;100.00;102140.53;5062430;28;20159;-90
2023/01/31 09:00:30;;;;;;;24.67;8.98;;;;;;;4.06;100.00;102135.19;5066104;28;20059;-90
2023/01/31 09:02:59;;;;;;;30.02;9.50;;;;;;;4.09;100.00;102129.91;5060808;28;20115;-89
2023/01/31 09:05:30;;;;;;;23.63;9.18;;;;;;;4.16;100.00;102134.06;5034054;28;20048;-90
2023/01/31 09:08:04;;;;;;;24.50;8.48;;;;;;;4.23;100.00;102142.56;5052346;28;20029;-90
2023/01/31 09:10:32;;;;;;;27.83;8.57;;;;;;;4.25;100.00;102123.38;5065172;28;20025;-90
2023/01/31 09:13:04;;;;;;;30.95;8.50;;;;;;;4.31;100.00;102125.81;5053929;28;20040;-89
2023/01/31 09:15:36;;;;;;;27.10;9.10;;;;;;;4.33;100.00;102126.63;5053549;28;20024;-90
2023/01/31 09:18:22;;;;;;;30.10;8.90;;;;;;;4.38;100.00;102132.56;5071149;28;20044;-90
2023/01/31 09:21:02;;;;;;;25.58;8.13;;;;;;;4.40;100.00;102130.81;5074164;28;20032;-89
2023/01/31 09:23:27;;;;;;;23.17;7.32;;;;;;;4.44;100.00;102120.28;5080272;28;20075;-90
2023/01/31 09:25:54;;;;;;;24.88;8.73;;;;;;;4.51;100.00;102116.63;5071612;28;20029;-89
2023/01/31 09:28:20;;;;;;;33.75;8.63;;;;;;;4.58;100.00;102111.16;5075746;28;20052;-90
2023/01/31 09:30:49;;;;;;;23.20;8.40;;;;;;;4.67;100.00;102097.88;5083926;28;20025;-89
2023/01/31 09:33:15;;;;;;;23.35;7.80;;;;;;;4.84;100.00;102105.22;5091790;28;20024;-90
2023/01/31 09:35:41;;;;;;;22.02;8.40;;;;;;;4.94;100.00;102084.91;5093456;28;20072;-88
2023/01/31 09:38:07;;;;;;;25.85;8.32;;;;;;;4.98;100.00;102099.56;5084710;28;20039;-90
2023/01/31 09:40:36;;;;;;;25.45;7.90;;;;;;;5.04;100.00;102101.97;5064399;28;20024;-84
2023/01/31 09:43:03;;;;;;;22.35;7.10;;;;;;;5.12;100.00;102104.34;5055960;28;20056;-90
2023/01/31 09:45:33;;;;;;;22.92;7.80;;;;;;;5.17;100.00;102108.50;5074231;28;20024;-90
2023/01/31 09:48:00;;;;;;;25.52;8.20;;;;;;;5.23;100.00;102107.50;5095251;28;20030;-89
2023/01/31 09:50:50;;;;;;;21.10;7.57;;;;;;;5.37;100.00;102105.28;5082295;28;20567;-83
2023/01/31 09:53:20;;;;;;;22.25;7.97;;;;;;;5.51;100.00;102100.47;5048808;28;20052;-89
2023/01/31 09:56:10;;;;;;;22.38;8.00;;;;;;;5.61;100.00;102099.28;5052709;28;20029;-89
2023/01/31 09:58:35;;;;;;;20.90;7.50;;;;;;;5.71;100.00;102104.19;5046492;28;20032;-90
2023/01/31 10:01:22;;;;;;;26.35;8.60;;;;;;;5.84;100.00;102100.25;5062121;28;20100;-90
2023/01/31 10:04:12;;;;;;;24.15;8.13;;;;;;;5.87;100.00;102100.16;5052833;28;20029;-90
2023/01/31 10:06:52;;;;;;;22.05;7.55;;;;;;;5.80;100.00;102114.31;5057594;28;20024;-90
2023/01/31 10:09:42;;;;;;;21.85;7.85;;;;;;;5.75;100.00;102109.25;5060631;28;20056;-91
2023/01/31 10:12:16;;;;;;;27.77;8.13;;;;;;;5.67;100.00;102103.44;5067731;28;20032;-90
2023/01/31 10:14:42;;;;;;;24.60;8.93;;;;;;;5.63;100.00;102113.16;5055035;28;20043;-91
2023/01/31 10:17:24;;;;;;;23.35;7.80;;;;;;;5.61;100.00;102117.56;5072159;28;20032;-90
2023/01/31 10:20:07;;;;;;;32.85;9.02;;;;;;;5.65;100.00;102107.88;5077069;28;20036;-90
2023/01/31 10:22:40;;;;;;;27.48;9.35;;;;;;;5.62;100.00;102111.44;5070303;28;20028;-90
2023/01/31 10:25:25;;;;;;;24.95;9.82;;;;;;;5.71;100.00;102078.94;5057197;28;20049;-90
2023/01/31 10:27:56;;;;;;;23.20;9.60;;;;;;;5.66;100.00;102079.09;5051382;28;20037;-90
2023/01/31 10:30:25;;;;;;;22.17;10.63;;;;;;;5.69;100.00;102082.50;5069933;28;20035;-90
2023/01/31 10:32:58;;;;;;;22.17;10.95;;;;;;;5.66;100.00;102091.28;5080345;28;20028;-89
2023/01/31 10:35:33;;;;;;;25.55;12.32;;;;;;;5.60;100.00;102094.97;5082278;28;20115;-91
2023/01/31 10:38:10;;;;;;;21.90;12.45;;;;;;;5.59;100.00;102111.50;5068784;28;20017;-90
2023/01/31 10:40:37;;;;;;;26.23;13.48;;;;;;;5.60;100.00;102097.59;5058368;28;20024;-91
2023/01/31 10:43:32;;;;;;;27.35;14.95;;;;;;;5.68;100.00;102104.31;5074945;28;20032;-84
2023/01/31 10:45:59;;;;;;;29.38;15.25;;;;;;;5.65;100.00;102100.88;5075412;28;20036;-90
2023/01/31 10:48:28;;;;;;;29.10;15.75;;;;;;;5.74;100.00;102093.66;5083271;28;20029;-90
2023/01/31 10:51:12;;;;;;;37.20;17.70;;;;;;;5.87;100.00;102095.78;5073317;28;20032;-89
2023/01/31 10:53:54;;;;;;;28.35;16.92;;;;;;;5.95;100.00;102087.72;5070051;28;20017;-89
2023/01/31 10:56:30;;;;;;;29.45;17.52;;;;;;;5.96;100.00;102065.91;5064829;28;20040;-91
2023/01/31 10:58:57;;;;;;;27.38;16.40;;;;;;;5.91;100.00;102076.50;5068590;28;20026;-91
2023/01/31 11:01:23;;;;;;;30.10;16.45;;;;;;;5.91;100.00;102078.28;5049016;28;20112;-90
2023/01/31 11:03:53;;;;;;;30.75;17.27;;;;;;;5.92;100.00;102077.38;5067904;28;20096;-90
2023/01/31 11:06:20;;;;;;;25.02;15.63;;;;;;;6.04;100.00;102061.28;5052853;28;20020;-91
2023/01/31 11:08:51;;;;;;;32.45;15.40;;;;;;;6.14;100.00;102077.47;5053445;28;20028;-91
2023/01/31 11:11:18;;;;;;;28.38;15.68;;;;;;;6.18;100.00;102079.91;5071376;28;20485;-91
2023/01/31 11:14:17;;;;;;;28.40;15.52;;;;;;;6.33;100.00;102072.44;5071581;28;20082;-90
2023/01/31 11:16:43;;;;;;;26.92;14.23;;;;;;;6.29;100.00;102051.63;5029794;28;20064;-83
2023/01/31 11:19:34;;;;;;;31.52;14.60;;;;;;;6.37;100.00;102047.88;5071049;28;20028;-90
2023/01/31 11:22:01;;;;;;;27.80;13.80;;;;;;;6.39;100.00;102051.28;5065469;28;20036;-82
2023/01/31 11:24:31;;;;;;;28.92;13.93;;;;;;;6.46;100.00;102045.78;5066477;28;20040;-90
2023/01/31 11:27:13;;;;;;;27.40;13.68;;;;;;;6.52;100.00;102022.03;5073639;28;20078;-83
2023/01/31 11:29:48;;;;;;;25.05;12.85;;;;;;;6.54;100.00;102016.75;5072962;28;20020;-90
2023/01/31 11:32:23;;;;;;;25.48;12.95;;;;;;;6.58;100.00;102024.41;5045288;28;20020;-91